Ewing, NE

9:23 PM CST on February 27, 2017 (GMT -0600)
FieldWise | | Change Station

Elev 1929 ft 42.26 °N, 98.35 °W | Updated 6 seconds ago

Clear
Clear
38.7 °F
Feels Like 36 °F
N
4.0
Wind Variable Wind from ESE
Gusts 8.0 mph

Today
High -- | Low -- °F
--% Chance of Precip.
Yesterday
High -- | Low -- °F
Precip. -- in
Pressure 29.64 in
Visibility 10.0 miles
Clouds Clear
Windchill 36 °F
Dew Point 33 °F
Humidity 80%
Rainfall 0.00 in
Snow Depth Not available.
7:11 AM 6:21 PM
Waxing Crescent, 3% visible
METAR KONL 280315Z AUTO 11008KT 10SM CLR 02/00 A2964 RMK AO2 T00190000
Pressure 29.64 in
Visibility 10.0 miles
Clouds Clear
Windchill 36 °F
Dew Point 33 °F
Humidity 80%
Rainfall 0.00 in
Snow Depth Not available.
7:11 AM 6:21 PM
Waxing Crescent, 3% visible
METAR KONL 280315Z AUTO 11008KT 10SM CLR 02/00 A2964 RMK AO2 T00190000

Get Your Daily Forecast Email!

Thanks for signing up!

Be on the lookout for a verification email in your inbox.

You'll start receiving the daily forecast at 8 AM.

×

10-Day Weather Forecast

Almanac

Astronomy

Feb. 27, 2017 Rise Set
Actual Time
Civil Twilight
Nautical Twilight
Astronomical Twilight
Moon
Length of Visible Light
Length of Day
Tomorrow will be .
, % of the Moon is Illuminated

Today's Extremes

State Highs State Lows

Community

WunderPhotos

Upload Photos

1,962,540 photos uploaded!

WunderBlog® & News

Nearby

Air Quality

  Air Quality AQ Index Pollutant
Not available.

Snow Depth

Station Depth Elevation

Earthquake Activity

City Distance Mag. Time & Date
Minimum magnitude displayed is 2.5.

Coastal Water Temperatures

Place Temperature

Stations

Nearby Weather Stations

Station Location Temp. Windchill Dew Point Humidity Wind Precip. Elev Updated Type
                   

Watches & Warnings

There are currently no watches in effect.